Fayetteville Regional Grannis Field
KFAY : now visible

Airfield :











YOU CAN JOIN US ON...

 
LOGIN :

Register | Disclaimer

   EN    FR    IT 

 









Legend :    VFR   Marginal VFR   IFR   Intensive IFR   Very Intensive IFR
Visi :
Ceiling :
>= 8 km
>= 3000ft
5 to 8 km
1000 to 3000 ft
1500m to 5 km
500 to 1000 ft
800 to 1500m
200 to 500 ft
< 800m
< 200 ft
Symbols :   Thunderstorms  Fog  Heavy snow  Heavy precipitations  Wind > 20 kt






- Airport Elevation : 189 ft
- IATA code : FAY


KFAY - Fayetteville Regional Grannis Field

CURRENT METAR :
  • 110630Z 13003KT 6SM BR CLR 22/21 A2998 RMK AO2 T02170206

EXPIRED METARs :
  • 110621Z 00000KT 2 1/2SM BR CLR 22/21 A2999 RMK AO2 T02170206
  • 110553Z 05003KT 7SM CLR 22/21 A3000 RMK AO2 SLP152 T02170206 10233 20217 58000
  • 110453Z 15003KT 10SM CLR 22/21 A3002 RMK AO2 SLP158 T02220211 403390222
  • 110441Z 17003KT 10SM SCT026 23/21 A3002 RMK AO2 T02280211
  • 110424Z 21004KT 10SM BKN026 BKN060 23/21 A3002 RMK AO2 T02280211
  • 110353Z 00000KT 9SM CLR 22/21 A3001 RMK AO2 SLP154 T02220211

TAF KFAY
Valid from the 11 at 06:00 until the 12 at 06:00 UTC


110540Z 1106/1206 18003KT P6SM FEW040 BKN250
FM110800 VRB02KT 3SM BR VCSH BKN006 OVC008
TEMPO 1109/1113 2SM BR BKN003
FM111400 19004KT P6SM SCT015
FM111800 18005KT P6SM SCT040 BKN250
PROB30 1118/1124 VRB15G30KT 2SM TSRA BKN030CB
KZDC FIR / North America



MET'MAP, your aeronautical weather chart ! - Copyright ORBIFLY December 2007 - Disclaimer

ORBIFLY MET'MAP TEAM :

Programming & Development : Alexandra Zaïnal
Concept & original design : Baudouin d'Aumeries
Assistance for programming : Marc-Olivier Méhu
Technical & hardware support : Manuel Goepfert

Contact : metmap@orbifly.com




SOURCES & CREDITS :

   NOAA       Earth
Advisory